• Join FlightAware (Why Join?)
  • Login
  • US Flag 
02:11AM EDT


 

Airport Tracker/Info


-or-


 

Live Flight TrackerFlight Track Log ✈ N860BA ✈ 09-May-2013 ✈ MYEH / ELH - KMSY

Flight Track Log - Related Links

Times and Time Zones

All times are in EDT time to prevent confusion due to time zone crossing. See the N860BA flight status page for this flight to view local times or setup timezone preferences in your user account.

Time Position Orientation Groundspeed Altitude Reporting Facility
EDT Latitude Longitude Course Direction KTS MPH feet Rate Location/Type
06:19PM 25.2547 -77.0242 281° West 461 531 16,500  Level Miami Center
06:20PM 25.2775 -77.1483 281° West 402 463 17,600 1,260 Climbing Miami Center
06:21PM 25.3253 -77.2725 293° West 408 470 19,100 1,680 Climbing Miami Center
06:22PM 25.3708 -77.4017 291° West 425 489 21,000 1,920 Climbing Miami Center
06:23PM 25.4203 -77.5375 292° West 436 502 23,000 1,920 Climbing Miami Center
06:24PM 25.4636 -77.6622 291° West 436 502 24,900 1,860 Climbing Miami Center
06:25PM 25.5069 -77.7867 291° West 436 502 26,800 1,920 Climbing Miami Center
06:26PM 25.5478 -77.9044 291° West 431 496 28,800 1,500 Climbing Miami Center
06:27PM 25.5928 -78.0292 292° West 431 496 29,800 960 Climbing Miami Center
06:28PM 25.6378 -78.1567 291° West 436 502 30,800 960 Climbing Miami Center
06:29PM 25.6825 -78.2861 291° West 441 507 31,800 1,020 Climbing Miami Center
06:30PM 25.7272 -78.4158 291° West 447 514 32,900 960 Climbing Miami Center
06:31PM 25.7675 -78.5456 289° West 452 520 33,800 900 Climbing Miami Center
06:32PM 25.8161 -78.6708 293° West 447 514 34,800 960 Climbing Miami Center
06:33PM 25.8586 -78.7961 291° West 447 514 35,800 960 Climbing Miami Center
06:34PM 25.8986 -78.9192 290° West 436 502 36,800 960 Climbing Miami Center
06:35PM 25.9386 -79.0403 290° West 429 494 37,800 600 Climbing Miami Center
06:36PM 25.9914 -79.1519 298° West 424 488 38,000  Climbing Miami Center
06:37PM 26.0753 -79.2486 314° West 418 481 37,900 -60 Descending Miami Center
06:38PM 26.1594 -79.3475 313° West 429 494 37,900  Level Miami Center
06:39PM 26.2456 -79.4442 315° West 434 499 37,900  Level Miami Center
06:40PM 26.3253 -79.5433 312° West 434 499 38,000  Climbing Miami Center
06:41PM 26.3967 -79.6353 311° West 434 499 38,000  Level Miami Center
06:42PM 26.4822 -79.7486 310° West 434 499 38,000  Level Miami Center
06:43PM 26.5511 -79.8433 309° West 434 499 38,000  Level Miami Center
06:44PM 26.6047 -79.9747 295° West 424 488 38,000  Level Miami Center
06:45PM 26.6314 -80.0939 284° West 431 496 38,000  Level Miami Center
06:46PM 26.6661 -80.2228 287° West 436 502 38,000  Level Miami Center
06:47PM 26.7006 -80.3633 285° West 436 502 38,000  Level Miami Center
06:48PM 26.7311 -80.4806 286° West 436 502 38,000  Level Miami Center
06:49PM 26.7672 -80.6189 286° West 436 502 38,000 -60 Level Miami Center
06:50PM 26.7994 -80.7456 286° West 430 495 37,900 -60 Descending Miami Center
06:51PM 26.8292 -80.8722 285° West 425 489 37,900  Level Miami Center
06:52PM 26.8633 -80.9992 287° West 424 488 37,900  Level Miami Center
06:53PM 26.8936 -81.1072 287° West 419 482 37,900  Level Miami Center
06:54PM 26.9253 -81.2389 285° West 419 482 37,900  Level Miami Center
06:55PM 26.9606 -81.3775 286° West 419 482 38,000  Climbing Miami Center
06:56PM 26.9942 -81.5047 287° West 419 482 38,000  Level Miami Center
06:57PM 27.0256 -81.6317 286° West 419 482 38,000  Level Miami Center
06:58PM 27.0531 -81.7472 285° West 419 482 38,000  Level Miami Center
06:59PM 27.0878 -81.8861 286° West 419 482 38,000  Level Miami Center
07:00PM 27.1192 -82.0089 286° West 419 482 38,000  Level Miami Center
07:01PM 27.1500 -82.1317 286° West 419 482 38,000  Level Miami Center
07:02PM 27.1753 -82.2400 285° West 411 473 38,000 -60 Level Miami Center
07:03PM 27.2100 -82.3722 286° West 411 473 37,900 -60 Descending Miami Center
07:04PM 27.2367 -82.4903 284° West 406 467 37,900  Level Miami Center
07:05PM 27.2653 -82.6108 285° West 398 458 38,000  Climbing Miami Center
07:06PM 27.2961 -82.7314 286° West 404 465 38,000  Level Miami Center
07:07PM 27.3208 -82.8403 284° West 404 465 38,000 -60 Level Miami Center
07:08PM 27.3547 -82.9728 286° West 404 465 37,900 -60 Descending Miami Center
07:09PM 27.3831 -83.0933 285° West 404 465 37,900  Level Miami Center
07:10PM 27.4133 -83.2142 286° West 404 465 37,900  Level Miami Center
07:11PM 27.4414 -83.3350 285° West 404 465 37,900  Level Miami Center
07:12PM 27.4672 -83.4533 284° West 404 465 37,900  Level Miami Center
07:13PM 27.4972 -83.5719 286° West 404 465 37,900  Level Miami Center
07:14PM 27.5228 -83.6928 283° West 404 465 37,900  Level Miami Center
07:15PM 27.5294 -83.8150 274° West 398 458 37,900  Level Miami Center
07:16PM 27.5336 -83.9414 272° West 393 452 37,900  Level Miami Center
07:17PM 27.5339 -84.0656 270° West 393 452 37,900  Level Miami Center
07:18PM 27.5358 -84.1894 271° West 393 452 37,900  Level Miami Center
07:19PM 27.5633 -84.3058 285° West 398 458 37,900  Level Miami Center
07:21PM 27.6367 -84.5275 291° West 379 436 37,900  Level Jacksonville Center
07:22PM 27.6792 -84.6428 293° West 384 442 37,900  Level Jacksonville Center
07:23PM 27.7192 -84.7583 291° West 389 448 37,900  Level Jacksonville Center
07:24PM 27.7550 -84.8717 290° West 389 448 37,900  Level Jacksonville Center
07:25PM 27.7908 -84.9825 290° West 384 442 37,900  Level Jacksonville Center
07:26PM 27.8308 -85.0914 293° West 384 442 37,900  Level Jacksonville Center
07:27PM 27.8642 -85.2069 288° West 384 442 37,900  Level Jacksonville Center
07:28PM 27.9017 -85.3206 291° West 379 436 37,900  Level Jacksonville Center
07:29PM 27.9350 -85.4317 289° West 379 436 37,900  Level Jacksonville Center
07:30PM 27.9683 -85.5431 289° West 385 443 37,900  Level Jacksonville Center
07:31PM 28.0014 -85.6519 289° West 379 436 37,900  Level Jacksonville Center
07:32PM 28.0325 -85.7564 289° West 374 430 37,900  Level Jacksonville Center
07:33PM 28.0675 -85.8656 290° West 369 425 37,900  Level Jacksonville Center
07:34PM 28.1006 -85.9722 289° West 369 425 37,900  Level Jacksonville Center
07:35PM 28.1333 -86.0886 288° West 374 430 37,900  Level Jacksonville Center
07:36PM 28.1678 -86.2028 289° West 369 425 37,900  Level Jacksonville Center
07:37PM 28.2006 -86.3119 289° West 369 425 37,900  Level Jacksonville Center
07:38PM 28.2328 -86.4261 288° West 372 428 37,900  Level Jacksonville Center
07:39PM 28.2653 -86.5333 289° West 370 426 37,900  Level Jacksonville Center
07:40PM 28.2997 -86.6478 289° West 375 432 37,900  Level Jacksonville Center
07:41PM 28.3258 -86.7500 286° West 363 418 37,900  Level Jacksonville Center
07:42PM 28.3619 -86.8622 290° West 369 425 37,900  Level Jacksonville Center
07:43PM 28.3958 -86.9792 288° West 369 425 37,900  Level Jacksonville Center
07:44PM 28.4467 -87.0828 299° West 369 425 37,900  Level Jacksonville Center
07:45PM 28.4978 -87.1817 300° West 369 425 37,900  Level Jacksonville Center
07:46PM 28.5486 -87.2831 300° West 375 432 37,900  Level Jacksonville Center
07:47PM 28.6011 -87.3894 299° West 380 437 37,900  Level Jacksonville Center
07:48PM 28.6669 -87.5264 299° West 371 427 37,900  Level Houston Center
07:49PM 28.7181 -87.6314 299° West 374 430 37,900  Level Houston Center
07:50PM 28.7692 -87.7347 299° West 374 430 37,900  Level Houston Center
07:51PM 28.8189 -87.8386 299° West 373 429 37,900  Level Houston Center
07:52PM 28.8703 -87.9431 299° West 375 432 37,900  Level Houston Center
07:53PM 28.9211 -88.0486 299° West 377 434 37,900  Level Houston Center
07:55PM 28.9808 -88.1772 298° West 381 438 37,900 -660 Level Houston Center
07:56PM 29.0317 -88.2825 299° West 379 436 36,600 -1,740 Descending Houston Center
07:57PM 29.0856 -88.3919 299° West 390 449 34,400 -2,220 Descending Houston Center
07:58PM 29.1406 -88.5075 299° West 408 470 32,100 -2,280 Descending Houston Center
07:59PM 29.1969 -88.6269 298° West 420 483 29,800 -2,220 Descending Houston Center
08:00PM 29.2544 -88.7453 299° West 425 489 27,500 -2,460 Descending Houston Center
08:01PM 29.3228 -88.8897 299° West 428 493 24,700 -2,520 Descending Houston Center
08:02PM 29.3800 -89.0125 298° West 432 497 22,400 -2,280 Descending Houston Center
08:03PM 29.4392 -89.1367 299° West 440 506 20,100 -2,280 Descending Houston Center
08:04PM 29.4983 -89.2633 298° West 447 514 17,800 -2,340 Descending Houston Center
08:04PM 29.5375 -89.3417 300° West 449 517 16,500 -2,160 Descending Houston Center
08:05PM 29.5564 -89.3861 296° West 442 509 15,600 -2,280 Descending Houston Center
08:05PM 29.5789 -89.4378 297° West 437 503 14,700 -2,280 Descending Houston Center
08:06PM 29.6139 -89.5075 300° West 434 499 13,300 -2,280 Descending Houston Center
08:06PM 29.6372 -89.5544 300° West 422 486 12,400 -2,280 Descending Houston Center
08:07PM 29.6850 -89.6442 302° West 418 481 11,000 -780 Descending Houston Center
08:08PM 29.7436 -89.7564 301° West 410 472 11,000  Level Houston Center
08:09PM 29.8050 -89.8703 302° West 358 412 11,000 -660 Level Houston Center
08:10PM 29.8456 -89.9428 303° West 313 360 9,700 -1,500 Descending Houston Center
08:11PM 29.9161 -89.9864 332° Northwest 294 338 8,100 -1,560 Descending Houston Center
08:12PM 29.9903 -90.0228 337° Northwest 291 335 6,500 -1,740 Descending Houston Center
08:13PM 30.0767 -90.0647 337° Northwest 287 330 4,600 -1,800 Descending Houston Center
08:14PM 30.0964 -90.1478 285° West 273 314 2,900 -1,140 Descending Houston Center
08:15PM 30.0833 -90.2039 255° West 195 224 2,400 -960 Descending Houston Center
08:16PM 30.0444 -90.2319 212° Southwest 122 140 1,000 -960 Descending Houston Center
08:17PM 30.0131 -90.2425 196° South 139 160 400 -600 Descending Houston Center
08:19PM 29.9833 -90.2500 225° Southwest  Level FlightAware Approximate